sensor_id;sensor_type;location;lat;lon;timestamp;P1;durP1;ratioP1;P2;durP2;ratioP2
68010;SDS011;54794;48.348;7.878;2022-08-01T00:00:06;1.27;;;0.80;;
68010;SDS011;54794;48.348;7.878;2022-08-01T00:02:36;1.13;;;0.70;;
68010;SDS011;54794;48.348;7.878;2022-08-01T00:05:07;1.70;;;0.68;;
68010;SDS011;54794;48.348;7.878;2022-08-01T00:07:35;3.35;;;0.70;;
68010;SDS011;54794;48.348;7.878;2022-08-01T00:10:04;0.93;;;0.73;;
68010;SDS011;54794;48.348;7.878;2022-08-01T00:12:34;1.15;;;0.60;;
68010;SDS011;54794;48.348;7.878;2022-08-01T00:17:30;0.88;;;0.77;;
68010;SDS011;54794;48.348;7.878;2022-08-01T00:19:57;0.90;;;0.60;;
68010;SDS011;54794;48.348;7.878;2022-08-01T00:22:24;1.77;;;0.90;;
68010;SDS011;54794;48.348;7.878;2022-08-01T00:24:51;1.15;;;0.88;;
68010;SDS011;54794;48.348;7.878;2022-08-01T00:27:18;4.32;;;0.70;;
68010;SDS011;54794;48.348;7.878;2022-08-01T00:29:45;0.70;;;0.52;;
68010;SDS011;54794;48.348;7.878;2022-08-01T00:32:32;0.90;;;0.68;;
68010;SDS011;54794;48.348;7.878;2022-08-01T00:34:59;1.50;;;0.80;;
68010;SDS011;54794;48.348;7.878;2022-08-01T00:37:26;0.90;;;0.80;;
68010;SDS011;54794;48.348;7.878;2022-08-01T00:39:53;0.98;;;0.80;;
68010;SDS011;54794;48.348;7.878;2022-08-01T00:42:20;2.05;;;1.00;;
68010;SDS011;54794;48.348;7.878;2022-08-01T00:44:47;1.67;;;0.85;;
68010;SDS011;54794;48.348;7.878;2022-08-01T00:47:14;0.95;;;0.80;;
68010;SDS011;54794;48.348;7.878;2022-08-01T00:49:41;0.93;;;0.75;;
68010;SDS011;54794;48.348;7.878;2022-08-01T00:52:08;1.00;;;0.90;;
68010;SDS011;54794;48.348;7.878;2022-08-01T00:54:36;0.98;;;0.60;;
68010;SDS011;54794;48.348;7.878;2022-08-01T00:57:03;1.70;;;0.80;;
68010;SDS011;54794;48.348;7.878;2022-08-01T00:59:35;1.30;;;1.00;;
68010;SDS011;54794;48.348;7.878;2022-08-01T01:02:06;1.40;;;0.75;;
68010;SDS011;54794;48.348;7.878;2022-08-01T01:04:40;1.13;;;0.90;;
68010;SDS011;54794;48.348;7.878;2022-08-01T01:07:22;1.10;;;0.80;;
68010;SDS011;54794;48.348;7.878;2022-08-01T01:10:00;1.05;;;0.68;;
68010;SDS011;54794;48.348;7.878;2022-08-01T01:15:49;1.08;;;0.60;;
68010;SDS011;54794;48.348;7.878;2022-08-01T01:18:30;0.85;;;0.75;;
68010;SDS011;54794;48.348;7.878;2022-08-01T01:29:31;1.17;;;0.90;;
68010;SDS011;54794;48.348;7.878;2022-08-01T01:32:36;0.85;;;0.60;;
68010;SDS011;54794;48.348;7.878;2022-08-01T01:35:11;1.27;;;0.90;;
68010;SDS011;54794;48.348;7.878;2022-08-01T01:37:45;2.97;;;1.10;;
68010;SDS011;54794;48.348;7.878;2022-08-01T01:40:19;1.42;;;0.90;;
68010;SDS011;54794;48.348;7.878;2022-08-01T01:42:49;3.70;;;1.00;;
68010;SDS011;54794;48.348;7.878;2022-08-01T01:45:17;1.13;;;0.75;;
68010;SDS011;54794;48.348;7.878;2022-08-01T01:47:46;1.50;;;0.90;;
68010;SDS011;54794;48.348;7.878;2022-08-01T01:50:14;3.05;;;1.05;;
68010;SDS011;54794;48.348;7.878;2022-08-01T01:52:42;1.92;;;1.27;;
68010;SDS011;54794;48.348;7.878;2022-08-01T01:55:12;1.30;;;1.00;;
68010;SDS011;54794;48.348;7.878;2022-08-01T01:57:41;1.13;;;1.00;;
68010;SDS011;54794;48.348;7.878;2022-08-01T02:00:11;1.08;;;0.90;;
68010;SDS011;54794;48.348;7.878;2022-08-01T02:02:40;1.63;;;0.95;;
68010;SDS011;54794;48.348;7.878;2022-08-01T02:05:09;1.33;;;1.00;;
68010;SDS011;54794;48.348;7.878;2022-08-01T02:07:38;1.25;;;0.90;;
68010;SDS011;54794;48.348;7.878;2022-08-01T02:10:06;1.08;;;0.95;;
68010;SDS011;54794;48.348;7.878;2022-08-01T02:12:36;2.35;;;1.23;;
68010;SDS011;54794;48.348;7.878;2022-08-01T02:15:07;2.80;;;1.00;;
68010;SDS011;54794;48.348;7.878;2022-08-01T02:17:37;3.03;;;1.15;;
68010;SDS011;54794;48.348;7.878;2022-08-01T02:20:11;1.52;;;1.00;;
68010;SDS011;54794;48.348;7.878;2022-08-01T02:22:49;1.08;;;0.90;;
68010;SDS011;54794;48.348;7.878;2022-08-01T02:25:25;1.00;;;0.90;;
68010;SDS011;54794;48.348;7.878;2022-08-01T02:28:04;1.27;;;0.82;;
68010;SDS011;54794;48.348;7.878;2022-08-01T02:30:39;1.10;;;0.80;;
68010;SDS011;54794;48.348;7.878;2022-08-01T02:33:15;1.08;;;0.80;;
68010;SDS011;54794;48.348;7.878;2022-08-01T02:36:02;2.40;;;1.00;;
68010;SDS011;54794;48.348;7.878;2022-08-01T02:38:51;2.15;;;1.02;;
68010;SDS011;54794;48.348;7.878;2022-08-01T02:41:23;2.05;;;1.23;;
68010;SDS011;54794;48.348;7.878;2022-08-01T02:43:55;1.40;;;1.08;;
68010;SDS011;54794;48.348;7.878;2022-08-01T02:46:32;1.15;;;0.85;;
68010;SDS011;54794;48.348;7.878;2022-08-01T02:49:11;2.03;;;1.10;;
68010;SDS011;54794;48.348;7.878;2022-08-01T02:51:40;1.85;;;1.48;;
68010;SDS011;54794;48.348;7.878;2022-08-01T02:54:09;1.42;;;0.90;;
68010;SDS011;54794;48.348;7.878;2022-08-01T02:56:37;1.83;;;1.30;;
68010;SDS011;54794;48.348;7.878;2022-08-01T02:59:11;2.25;;;1.13;;
68010;SDS011;54794;48.348;7.878;2022-08-01T03:01:47;0.80;;;0.75;;
68010;SDS011;54794;48.348;7.878;2022-08-01T03:04:20;1.35;;;1.00;;
68010;SDS011;54794;48.348;7.878;2022-08-01T03:06:55;1.17;;;1.05;;
68010;SDS011;54794;48.348;7.878;2022-08-01T03:09:25;1.50;;;0.98;;
68010;SDS011;54794;48.348;7.878;2022-08-01T03:11:55;3.03;;;1.00;;
68010;SDS011;54794;48.348;7.878;2022-08-01T03:14:27;1.63;;;1.05;;
68010;SDS011;54794;48.348;7.878;2022-08-01T03:17:00;1.73;;;1.08;;
68010;SDS011;54794;48.348;7.878;2022-08-01T03:19:30;1.60;;;1.27;;
68010;SDS011;54794;48.348;7.878;2022-08-01T03:22:00;1.75;;;1.27;;
68010;SDS011;54794;48.348;7.878;2022-08-01T03:24:30;0.93;;;0.82;;
68010;SDS011;54794;48.348;7.878;2022-08-01T03:26:59;1.80;;;1.20;;
68010;SDS011;54794;48.348;7.878;2022-08-01T03:29:27;1.55;;;1.20;;
68010;SDS011;54794;48.348;7.878;2022-08-01T03:31:58;2.67;;;1.13;;
68010;SDS011;54794;48.348;7.878;2022-08-01T03:34:27;2.30;;;1.40;;
68010;SDS011;54794;48.348;7.878;2022-08-01T03:36:56;2.97;;;1.20;;
68010;SDS011;54794;48.348;7.878;2022-08-01T03:39:37;2.72;;;1.38;;
68010;SDS011;54794;48.348;7.878;2022-08-01T03:42:14;2.25;;;1.25;;
68010;SDS011;54794;48.348;7.878;2022-08-01T03:44:48;1.50;;;1.20;;
68010;SDS011;54794;48.348;7.878;2022-08-01T03:47:28;1.42;;;1.08;;
68010;SDS011;54794;48.348;7.878;2022-08-01T03:50:10;2.58;;;1.15;;
68010;SDS011;54794;48.348;7.878;2022-08-01T03:52:40;1.08;;;0.98;;
68010;SDS011;54794;48.348;7.878;2022-08-01T03:55:11;1.92;;;1.20;;
68010;SDS011;54794;48.348;7.878;2022-08-01T03:57:43;1.65;;;1.30;;
68010;SDS011;54794;48.348;7.878;2022-08-01T04:00:13;1.45;;;1.33;;
68010;SDS011;54794;48.348;7.878;2022-08-01T04:02:48;1.83;;;1.25;;
68010;SDS011;54794;48.348;7.878;2022-08-01T04:05:16;1.70;;;1.23;;
68010;SDS011;54794;48.348;7.878;2022-08-01T04:07:48;1.80;;;1.20;;
68010;SDS011;54794;48.348;7.878;2022-08-01T04:12:50;1.83;;;1.35;;
68010;SDS011;54794;48.348;7.878;2022-08-01T04:15:17;7.15;;;1.20;;
68010;SDS011;54794;48.348;7.878;2022-08-01T04:17:46;1.88;;;1.15;;
68010;SDS011;54794;48.348;7.878;2022-08-01T04:20:14;1.50;;;1.15;;
68010;SDS011;54794;48.348;7.878;2022-08-01T04:22:41;2.42;;;1.15;;
68010;SDS011;54794;48.348;7.878;2022-08-01T04:28:10;1.80;;;1.40;;
68010;SDS011;54794;48.348;7.878;2022-08-01T04:30:43;1.83;;;1.27;;
68010;SDS011;54794;48.348;7.878;2022-08-01T04:33:15;1.42;;;1.10;;
68010;SDS011;54794;48.348;7.878;2022-08-01T04:35:46;1.42;;;1.10;;
68010;SDS011;54794;48.348;7.878;2022-08-01T04:38:30;2.75;;;1.27;;
68010;SDS011;54794;48.348;7.878;2022-08-01T04:41:03;2.42;;;1.20;;
68010;SDS011;54794;48.348;7.878;2022-08-01T04:43:35;1.58;;;1.25;;
68010;SDS011;54794;48.348;7.878;2022-08-01T04:46:03;1.50;;;1.30;;
68010;SDS011;54794;48.348;7.878;2022-08-01T04:48:33;2.42;;;1.58;;
68010;SDS011;54794;48.348;7.878;2022-08-01T04:51:04;1.58;;;1.23;;
68010;SDS011;54794;48.348;7.878;2022-08-01T04:53:41;2.92;;;1.30;;
68010;SDS011;54794;48.348;7.878;2022-08-01T04:56:09;1.92;;;1.40;;
68010;SDS011;54794;48.348;7.878;2022-08-01T04:58:39;2.20;;;1.45;;
68010;SDS011;54794;48.348;7.878;2022-08-01T05:01:07;2.22;;;1.60;;
68010;SDS011;54794;48.348;7.878;2022-08-01T05:03:35;2.30;;;1.30;;
68010;SDS011;54794;48.348;7.878;2022-08-01T05:06:04;1.40;;;1.10;;
68010;SDS011;54794;48.348;7.878;2022-08-01T05:08:35;1.38;;;1.10;;
68010;SDS011;54794;48.348;7.878;2022-08-01T05:11:02;1.40;;;1.20;;
68010;SDS011;54794;48.348;7.878;2022-08-01T05:13:30;1.58;;;1.10;;
68010;SDS011;54794;48.348;7.878;2022-08-01T05:15:57;1.70;;;1.33;;
68010;SDS011;54794;48.348;7.878;2022-08-01T05:20:53;5.72;;;1.25;;
68010;SDS011;54794;48.348;7.878;2022-08-01T05:23:21;1.90;;;1.35;;
68010;SDS011;54794;48.348;7.878;2022-08-01T05:26:08;1.45;;;1.20;;
68010;SDS011;54794;48.348;7.878;2022-08-01T05:28:40;1.50;;;1.30;;
68010;SDS011;54794;48.348;7.878;2022-08-01T05:33:34;1.77;;;1.40;;
68010;SDS011;54794;48.348;7.878;2022-08-01T05:36:02;1.98;;;1.40;;
68010;SDS011;54794;48.348;7.878;2022-08-01T05:38:29;2.30;;;1.38;;
68010;SDS011;54794;48.348;7.878;2022-08-01T05:40:56;1.75;;;1.25;;
68010;SDS011;54794;48.348;7.878;2022-08-01T05:43:22;2.65;;;1.50;;
68010;SDS011;54794;48.348;7.878;2022-08-01T05:45:54;2.22;;;1.27;;
68010;SDS011;54794;48.348;7.878;2022-08-01T05:48:21;1.45;;;1.25;;
68010;SDS011;54794;48.348;7.878;2022-08-01T05:50:48;3.30;;;1.30;;
68010;SDS011;54794;48.348;7.878;2022-08-01T05:53:15;2.42;;;1.30;;
68010;SDS011;54794;48.348;7.878;2022-08-01T05:55:43;1.27;;;1.08;;
68010;SDS011;54794;48.348;7.878;2022-08-01T05:58:09;2.10;;;1.40;;
68010;SDS011;54794;48.348;7.878;2022-08-01T06:00:38;2.58;;;1.27;;
68010;SDS011;54794;48.348;7.878;2022-08-01T06:05:32;3.35;;;1.10;;
68010;SDS011;54794;48.348;7.878;2022-08-01T06:07:59;1.75;;;1.35;;
68010;SDS011;54794;48.348;7.878;2022-08-01T06:10:26;2.63;;;1.00;;
68010;SDS011;54794;48.348;7.878;2022-08-01T06:12:52;1.67;;;1.30;;
68010;SDS011;54794;48.348;7.878;2022-08-01T06:15:19;2.25;;;1.20;;
68010;SDS011;54794;48.348;7.878;2022-08-01T06:17:47;2.38;;;1.33;;
68010;SDS011;54794;48.348;7.878;2022-08-01T06:20:14;1.30;;;1.20;;
68010;SDS011;54794;48.348;7.878;2022-08-01T06:25:08;1.17;;;1.08;;
68010;SDS011;54794;48.348;7.878;2022-08-01T06:27:35;4.60;;;1.20;;
68010;SDS011;54794;48.348;7.878;2022-08-01T06:32:31;1.73;;;0.88;;
68010;SDS011;54794;48.348;7.878;2022-08-01T06:34:58;3.47;;;1.00;;
68010;SDS011;54794;48.348;7.878;2022-08-01T06:37:29;1.63;;;1.20;;
68010;SDS011;54794;48.348;7.878;2022-08-01T06:40:04;1.35;;;1.13;;
68010;SDS011;54794;48.348;7.878;2022-08-01T06:42:41;2.28;;;1.10;;
68010;SDS011;54794;48.348;7.878;2022-08-01T06:45:09;2.08;;;1.30;;
68010;SDS011;54794;48.348;7.878;2022-08-01T06:47:38;3.30;;;1.38;;
68010;SDS011;54794;48.348;7.878;2022-08-01T06:50:07;4.75;;;1.27;;
68010;SDS011;54794;48.348;7.878;2022-08-01T06:52:37;1.25;;;1.13;;
68010;SDS011;54794;48.348;7.878;2022-08-01T06:57:31;1.95;;;1.10;;
68010;SDS011;54794;48.348;7.878;2022-08-01T07:00:01;1.33;;;1.02;;
68010;SDS011;54794;48.348;7.878;2022-08-01T07:02:35;1.67;;;1.10;;
68010;SDS011;54794;48.348;7.878;2022-08-01T07:05:03;1.80;;;1.20;;
68010;SDS011;54794;48.348;7.878;2022-08-01T07:07:30;3.03;;;1.27;;
68010;SDS011;54794;48.348;7.878;2022-08-01T07:09:57;2.88;;;1.23;;
68010;SDS011;54794;48.348;7.878;2022-08-01T07:12:24;1.67;;;1.13;;
68010;SDS011;54794;48.348;7.878;2022-08-01T07:14:51;6.00;;;1.20;;
68010;SDS011;54794;48.348;7.878;2022-08-01T07:17:18;2.35;;;1.23;;
68010;SDS011;54794;48.348;7.878;2022-08-01T07:19:46;1.90;;;1.20;;
68010;SDS011;54794;48.348;7.878;2022-08-01T07:22:14;1.85;;;1.30;;
68010;SDS011;54794;48.348;7.878;2022-08-01T07:24:48;5.25;;;1.60;;
68010;SDS011;54794;48.348;7.878;2022-08-01T07:27:19;1.63;;;1.30;;
68010;SDS011;54794;48.348;7.878;2022-08-01T07:29:51;1.75;;;1.20;;
68010;SDS011;54794;48.348;7.878;2022-08-01T07:32:18;1.90;;;1.23;;
68010;SDS011;54794;48.348;7.878;2022-08-01T07:34:45;2.88;;;1.20;;
68010;SDS011;54794;48.348;7.878;2022-08-01T07:37:12;1.77;;;1.30;;
68010;SDS011;54794;48.348;7.878;2022-08-01T07:39:39;4.55;;;1.05;;
68010;SDS011;54794;48.348;7.878;2022-08-01T07:42:06;2.65;;;1.55;;
68010;SDS011;54794;48.348;7.878;2022-08-01T07:44:34;1.88;;;1.30;;
68010;SDS011;54794;48.348;7.878;2022-08-01T07:47:02;2.67;;;1.40;;
68010;SDS011;54794;48.348;7.878;2022-08-01T07:49:30;5.82;;;1.10;;
68010;SDS011;54794;48.348;7.878;2022-08-01T07:52:04;1.50;;;0.82;;
68010;SDS011;54794;48.348;7.878;2022-08-01T07:54:31;2.00;;;0.90;;
68010;SDS011;54794;48.348;7.878;2022-08-01T07:57:00;3.15;;;1.02;;
68010;SDS011;54794;48.348;7.878;2022-08-01T07:59:28;1.20;;;1.10;;
68010;SDS011;54794;48.348;7.878;2022-08-01T08:01:55;2.35;;;0.80;;
68010;SDS011;54794;48.348;7.878;2022-08-01T08:04:22;1.20;;;0.90;;
68010;SDS011;54794;48.348;7.878;2022-08-01T08:06:49;2.50;;;1.00;;
68010;SDS011;54794;48.348;7.878;2022-08-01T08:11:44;0.90;;;0.70;;
68010;SDS011;54794;48.348;7.878;2022-08-01T08:14:13;1.10;;;0.68;;
68010;SDS011;54794;48.348;7.878;2022-08-01T08:16:42;0.80;;;0.70;;
68010;SDS011;54794;48.348;7.878;2022-08-01T08:19:10;1.02;;;0.57;;
68010;SDS011;54794;48.348;7.878;2022-08-01T08:21:37;1.55;;;0.80;;
68010;SDS011;54794;48.348;7.878;2022-08-01T08:24:05;1.83;;;0.80;;
68010;SDS011;54794;48.348;7.878;2022-08-01T08:26:56;1.30;;;0.90;;
68010;SDS011;54794;48.348;7.878;2022-08-01T08:29:25;0.60;;;0.60;;
68010;SDS011;54794;48.348;7.878;2022-08-01T08:31:53;1.60;;;0.75;;
68010;SDS011;54794;48.348;7.878;2022-08-01T08:34:22;1.92;;;0.95;;
68010;SDS011;54794;48.348;7.878;2022-08-01T08:36:50;1.23;;;0.77;;
68010;SDS011;54794;48.348;7.878;2022-08-01T08:39:18;3.58;;;0.80;;
68010;SDS011;54794;48.348;7.878;2022-08-01T08:44:15;1.13;;;0.75;;
68010;SDS011;54794;48.348;7.878;2022-08-01T08:46:46;5.20;;;0.90;;
68010;SDS011;54794;48.348;7.878;2022-08-01T08:49:20;1.40;;;0.90;;
68010;SDS011;54794;48.348;7.878;2022-08-01T08:52:01;3.28;;;0.90;;
68010;SDS011;54794;48.348;7.878;2022-08-01T08:54:30;6.65;;;1.33;;
68010;SDS011;54794;48.348;7.878;2022-08-01T08:56:59;1.23;;;0.85;;
68010;SDS011;54794;48.348;7.878;2022-08-01T08:59:27;1.10;;;0.85;;
68010;SDS011;54794;48.348;7.878;2022-08-01T09:01:54;1.30;;;1.10;;
68010;SDS011;54794;48.348;7.878;2022-08-01T09:04:23;5.22;;;1.20;;
68010;SDS011;54794;48.348;7.878;2022-08-01T09:06:52;2.50;;;1.17;;
68010;SDS011;54794;48.348;7.878;2022-08-01T09:09:21;1.10;;;0.93;;
68010;SDS011;54794;48.348;7.878;2022-08-01T09:11:48;2.83;;;1.30;;
68010;SDS011;54794;48.348;7.878;2022-08-01T09:14:23;1.65;;;1.15;;
68010;SDS011;54794;48.348;7.878;2022-08-01T09:17:00;1.20;;;1.08;;
68010;SDS011;54794;48.348;7.878;2022-08-01T09:20:01;2.15;;;1.30;;
68010;SDS011;54794;48.348;7.878;2022-08-01T09:22:24;1.58;;;1.23;;
68010;SDS011;54794;48.348;7.878;2022-08-01T09:24:58;2.15;;;1.27;;
68010;SDS011;54794;48.348;7.878;2022-08-01T09:27:36;2.92;;;1.10;;
68010;SDS011;54794;48.348;7.878;2022-08-01T09:30:12;1.23;;;1.10;;
68010;SDS011;54794;48.348;7.878;2022-08-01T09:32:52;1.33;;;1.15;;
68010;SDS011;54794;48.348;7.878;2022-08-01T09:40:56;1.95;;;1.23;;
68010;SDS011;54794;48.348;7.878;2022-08-01T09:43:28;3.97;;;1.00;;
68010;SDS011;54794;48.348;7.878;2022-08-01T09:45:58;1.50;;;0.88;;
68010;SDS011;54794;48.348;7.878;2022-08-01T09:48:30;1.67;;;1.35;;
68010;SDS011;54794;48.348;7.878;2022-08-01T09:50:58;1.80;;;1.50;;
68010;SDS011;54794;48.348;7.878;2022-08-01T09:53:41;2.53;;;1.15;;
68010;SDS011;54794;48.348;7.878;2022-08-01T09:56:20;1.30;;;1.20;;
68010;SDS011;54794;48.348;7.878;2022-08-01T09:58:49;3.25;;;1.13;;
68010;SDS011;54794;48.348;7.878;2022-08-01T10:04:16;2.13;;;1.23;;
68010;SDS011;54794;48.348;7.878;2022-08-01T10:06:46;2.08;;;1.25;;
68010;SDS011;54794;48.348;7.878;2022-08-01T10:09:30;1.30;;;1.15;;
68010;SDS011;54794;48.348;7.878;2022-08-01T10:12:06;1.70;;;1.33;;
68010;SDS011;54794;48.348;7.878;2022-08-01T10:14:41;2.38;;;1.60;;
68010;SDS011;54794;48.348;7.878;2022-08-01T10:17:24;1.67;;;1.20;;
68010;SDS011;54794;48.348;7.878;2022-08-01T10:20:11;1.60;;;1.13;;
68010;SDS011;54794;48.348;7.878;2022-08-01T10:22:58;2.20;;;1.40;;
68010;SDS011;54794;48.348;7.878;2022-08-01T10:25:34;1.60;;;1.30;;
68010;SDS011;54794;48.348;7.878;2022-08-01T10:30:47;1.52;;;1.17;;
68010;SDS011;54794;48.348;7.878;2022-08-01T10:33:15;1.10;;;1.00;;
68010;SDS011;54794;48.348;7.878;2022-08-01T10:36:03;1.58;;;1.13;;
68010;SDS011;54794;48.348;7.878;2022-08-01T10:38:34;3.67;;;1.20;;
68010;SDS011;54794;48.348;7.878;2022-08-01T10:41:03;1.58;;;1.30;;
68010;SDS011;54794;48.348;7.878;2022-08-01T10:43:34;2.60;;;1.10;;
68010;SDS011;54794;48.348;7.878;2022-08-01T10:46:03;1.42;;;1.27;;
68010;SDS011;54794;48.348;7.878;2022-08-01T10:48:49;3.38;;;1.20;;
68010;SDS011;54794;48.348;7.878;2022-08-01T10:51:36;1.52;;;1.17;;
68010;SDS011;54794;48.348;7.878;2022-08-01T10:54:19;1.20;;;1.10;;
68010;SDS011;54794;48.348;7.878;2022-08-01T10:56:52;2.33;;;1.25;;
68010;SDS011;54794;48.348;7.878;2022-08-01T10:59:21;2.58;;;1.30;;
68010;SDS011;54794;48.348;7.878;2022-08-01T11:02:27;1.65;;;1.17;;
68010;SDS011;54794;48.348;7.878;2022-08-01T11:05:00;1.50;;;1.10;;
68010;SDS011;54794;48.348;7.878;2022-08-01T11:07:53;2.10;;;0.93;;
68010;SDS011;54794;48.348;7.878;2022-08-01T11:10:25;1.55;;;1.23;;
68010;SDS011;54794;48.348;7.878;2022-08-01T11:12:55;1.52;;;1.00;;
68010;SDS011;54794;48.348;7.878;2022-08-01T11:15:22;1.30;;;1.10;;
68010;SDS011;54794;48.348;7.878;2022-08-01T11:17:57;1.88;;;1.30;;
68010;SDS011;54794;48.348;7.878;2022-08-01T11:28:25;1.48;;;1.35;;
68010;SDS011;54794;48.348;7.878;2022-08-01T11:41:27;1.15;;;1.00;;
68010;SDS011;54794;48.348;7.878;2022-08-01T11:52:29;1.30;;;1.17;;
68010;SDS011;54794;48.348;7.878;2022-08-01T11:57:36;1.55;;;1.10;;
68010;SDS011;54794;48.348;7.878;2022-08-01T12:02:42;1.95;;;1.30;;
68010;SDS011;54794;48.348;7.878;2022-08-01T12:05:12;1.25;;;1.10;;
68010;SDS011;54794;48.348;7.878;2022-08-01T12:07:44;1.70;;;1.13;;
68010;SDS011;54794;48.348;7.878;2022-08-01T12:10:17;1.45;;;1.00;;
68010;SDS011;54794;48.348;7.878;2022-08-01T12:12:48;1.20;;;1.08;;
68010;SDS011;54794;48.348;7.878;2022-08-01T12:15:22;2.40;;;1.10;;
68010;SDS011;54794;48.348;7.878;2022-08-01T12:17:54;1.92;;;1.08;;
68010;SDS011;54794;48.348;7.878;2022-08-01T12:20:31;1.42;;;1.00;;
68010;SDS011;54794;48.348;7.878;2022-08-01T12:23:05;1.35;;;1.13;;
68010;SDS011;54794;48.348;7.878;2022-08-01T12:25:39;1.10;;;1.00;;
68010;SDS011;54794;48.348;7.878;2022-08-01T12:28:07;1.80;;;1.00;;
68010;SDS011;54794;48.348;7.878;2022-08-01T12:30:35;1.30;;;1.02;;
68010;SDS011;54794;48.348;7.878;2022-08-01T12:33:08;1.38;;;1.00;;
68010;SDS011;54794;48.348;7.878;2022-08-01T12:35:37;3.58;;;1.40;;
68010;SDS011;54794;48.348;7.878;2022-08-01T12:38:12;1.20;;;1.10;;
68010;SDS011;54794;48.348;7.878;2022-08-01T12:40:42;1.30;;;1.20;;
68010;SDS011;54794;48.348;7.878;2022-08-01T12:43:18;1.50;;;1.10;;
68010;SDS011;54794;48.348;7.878;2022-08-01T12:45:55;1.27;;;1.13;;
68010;SDS011;54794;48.348;7.878;2022-08-01T12:48:26;1.20;;;1.10;;
68010;SDS011;54794;48.348;7.878;2022-08-01T12:50:56;1.98;;;1.50;;
68010;SDS011;54794;48.348;7.878;2022-08-01T12:53:27;2.20;;;1.15;;
68010;SDS011;54794;48.348;7.878;2022-08-01T12:56:06;1.73;;;1.30;;
68010;SDS011;54794;48.348;7.878;2022-08-01T12:58:36;1.80;;;1.08;;
68010;SDS011;54794;48.348;7.878;2022-08-01T13:01:06;1.40;;;0.98;;
68010;SDS011;54794;48.348;7.878;2022-08-01T13:03:37;1.38;;;1.17;;
68010;SDS011;54794;48.348;7.878;2022-08-01T13:06:11;1.25;;;1.15;;
68010;SDS011;54794;48.348;7.878;2022-08-01T13:08:41;1.48;;;1.17;;
68010;SDS011;54794;48.348;7.878;2022-08-01T13:11:12;2.00;;;1.10;;
68010;SDS011;54794;48.348;7.878;2022-08-01T13:13:46;1.30;;;1.20;;
68010;SDS011;54794;48.348;7.878;2022-08-01T13:16:19;1.15;;;1.05;;
68010;SDS011;54794;48.348;7.878;2022-08-01T13:19:12;3.10;;;1.30;;
68010;SDS011;54794;48.348;7.878;2022-08-01T13:21:39;1.30;;;1.20;;
68010;SDS011;54794;48.348;7.878;2022-08-01T13:24:25;1.73;;;1.13;;
68010;SDS011;54794;48.348;7.878;2022-08-01T13:27:19;1.60;;;1.33;;
68010;SDS011;54794;48.348;7.878;2022-08-01T13:29:51;1.30;;;1.02;;
68010;SDS011;54794;48.348;7.878;2022-08-01T13:32:20;1.58;;;1.23;;
68010;SDS011;54794;48.348;7.878;2022-08-01T13:35:05;1.20;;;1.10;;
68010;SDS011;54794;48.348;7.878;2022-08-01T13:37:35;2.17;;;1.42;;
68010;SDS011;54794;48.348;7.878;2022-08-01T13:40:04;1.48;;;1.27;;
68010;SDS011;54794;48.348;7.878;2022-08-01T13:42:33;1.27;;;1.17;;
68010;SDS011;54794;48.348;7.878;2022-08-01T13:45:01;1.15;;;1.00;;
68010;SDS011;54794;48.348;7.878;2022-08-01T13:47:39;1.55;;;1.25;;
68010;SDS011;54794;48.348;7.878;2022-08-01T13:50:26;1.40;;;1.20;;
68010;SDS011;54794;48.348;7.878;2022-08-01T13:52:53;1.50;;;1.20;;
68010;SDS011;54794;48.348;7.878;2022-08-01T13:57:47;1.05;;;0.95;;
68010;SDS011;54794;48.348;7.878;2022-08-01T14:00:14;1.90;;;1.25;;
68010;SDS011;54794;48.348;7.878;2022-08-01T14:02:41;1.42;;;1.00;;
68010;SDS011;54794;48.348;7.878;2022-08-01T14:07:35;1.50;;;1.02;;
68010;SDS011;54794;48.348;7.878;2022-08-01T14:10:03;3.67;;;1.02;;
68010;SDS011;54794;48.348;7.878;2022-08-01T14:12:45;1.30;;;1.05;;
68010;SDS011;54794;48.348;7.878;2022-08-01T14:15:14;1.45;;;1.20;;
68010;SDS011;54794;48.348;7.878;2022-08-01T14:20:31;4.43;;;1.10;;
68010;SDS011;54794;48.348;7.878;2022-08-01T14:22:59;2.67;;;1.15;;
68010;SDS011;54794;48.348;7.878;2022-08-01T14:28:13;1.80;;;1.05;;
68010;SDS011;54794;48.348;7.878;2022-08-01T14:30:40;3.15;;;1.23;;
68010;SDS011;54794;48.348;7.878;2022-08-01T14:33:09;1.17;;;0.85;;
68010;SDS011;54794;48.348;7.878;2022-08-01T14:35:37;2.53;;;1.30;;
68010;SDS011;54794;48.348;7.878;2022-08-01T14:38:24;1.63;;;1.00;;
68010;SDS011;54794;48.348;7.878;2022-08-01T14:40:57;2.42;;;1.20;;
68010;SDS011;54794;48.348;7.878;2022-08-01T14:43:25;1.25;;;0.98;;
68010;SDS011;54794;48.348;7.878;2022-08-01T14:45:58;1.42;;;1.10;;
68010;SDS011;54794;48.348;7.878;2022-08-01T14:48:26;2.10;;;1.20;;
68010;SDS011;54794;48.348;7.878;2022-08-01T14:50:55;1.60;;;1.10;;
68010;SDS011;54794;48.348;7.878;2022-08-01T14:53:23;3.88;;;1.10;;
68010;SDS011;54794;48.348;7.878;2022-08-01T14:58:16;3.45;;;0.93;;
68010;SDS011;54794;48.348;7.878;2022-08-01T15:03:11;1.10;;;0.88;;
68010;SDS011;54794;48.348;7.878;2022-08-01T15:05:38;1.77;;;1.00;;
68010;SDS011;54794;48.348;7.878;2022-08-01T15:08:05;0.80;;;0.70;;
68010;SDS011;54794;48.348;7.878;2022-08-01T15:10:33;1.15;;;0.95;;
68010;SDS011;54794;48.348;7.878;2022-08-01T15:13:00;2.67;;;0.98;;
68010;SDS011;54794;48.348;7.878;2022-08-01T15:15:27;3.08;;;1.00;;
68010;SDS011;54794;48.348;7.878;2022-08-01T15:17:56;1.05;;;0.70;;
68010;SDS011;54794;48.348;7.878;2022-08-01T15:20:23;2.95;;;0.88;;
68010;SDS011;54794;48.348;7.878;2022-08-01T15:22:51;6.32;;;0.80;;
68010;SDS011;54794;48.348;7.878;2022-08-01T15:25:19;0.98;;;0.77;;
68010;SDS011;54794;48.348;7.878;2022-08-01T15:27:46;0.68;;;0.60;;
68010;SDS011;54794;48.348;7.878;2022-08-01T15:30:13;1.02;;;0.73;;
68010;SDS011;54794;48.348;7.878;2022-08-01T15:35:07;2.00;;;0.63;;
68010;SDS011;54794;48.348;7.878;2022-08-01T15:37:36;0.75;;;0.63;;
68010;SDS011;54794;48.348;7.878;2022-08-01T15:40:08;1.27;;;0.70;;
68010;SDS011;54794;48.348;7.878;2022-08-01T15:42:37;1.55;;;0.70;;
68010;SDS011;54794;48.348;7.878;2022-08-01T15:45:05;1.00;;;0.60;;
68010;SDS011;54794;48.348;7.878;2022-08-01T15:47:45;1.58;;;0.60;;
68010;SDS011;54794;48.348;7.878;2022-08-01T15:50:12;1.67;;;0.60;;
68010;SDS011;54794;48.348;7.878;2022-08-01T15:52:39;0.70;;;0.60;;
68010;SDS011;54794;48.348;7.878;2022-08-01T15:55:06;0.70;;;0.60;;
68010;SDS011;54794;48.348;7.878;2022-08-01T15:57:34;1.23;;;0.70;;
68010;SDS011;54794;48.348;7.878;2022-08-01T16:00:01;1.58;;;0.82;;
68010;SDS011;54794;48.348;7.878;2022-08-01T16:02:29;1.23;;;0.68;;
68010;SDS011;54794;48.348;7.878;2022-08-01T16:04:56;1.90;;;0.50;;
68010;SDS011;54794;48.348;7.878;2022-08-01T16:07:23;0.80;;;0.60;;
68010;SDS011;54794;48.348;7.878;2022-08-01T16:09:50;1.13;;;0.60;;
68010;SDS011;54794;48.348;7.878;2022-08-01T16:12:17;1.90;;;0.70;;
68010;SDS011;54794;48.348;7.878;2022-08-01T16:14:44;0.68;;;0.52;;
68010;SDS011;54794;48.348;7.878;2022-08-01T16:19:38;1.45;;;0.55;;
68010;SDS011;54794;48.348;7.878;2022-08-01T16:22:05;0.80;;;0.50;;
68010;SDS011;54794;48.348;7.878;2022-08-01T16:24:33;0.75;;;0.60;;
68010;SDS011;54794;48.348;7.878;2022-08-01T16:27:01;1.77;;;0.60;;
68010;SDS011;54794;48.348;7.878;2022-08-01T16:29:28;0.40;;;0.30;;
68010;SDS011;54794;48.348;7.878;2022-08-01T16:31:57;2.05;;;0.65;;
68010;SDS011;54794;48.348;7.878;2022-08-01T16:34:36;0.52;;;0.40;;
68010;SDS011;54794;48.348;7.878;2022-08-01T16:37:12;2.25;;;0.52;;
68010;SDS011;54794;48.348;7.878;2022-08-01T16:39:40;1.00;;;0.50;;
68010;SDS011;54794;48.348;7.878;2022-08-01T16:42:07;0.52;;;0.40;;
68010;SDS011;54794;48.348;7.878;2022-08-01T16:44:34;0.38;;;0.25;;
68010;SDS011;54794;48.348;7.878;2022-08-01T16:47:01;0.45;;;0.40;;
68010;SDS011;54794;48.348;7.878;2022-08-01T16:49:30;0.90;;;0.30;;
68010;SDS011;54794;48.348;7.878;2022-08-01T16:51:58;5.72;;;0.60;;
68010;SDS011;54794;48.348;7.878;2022-08-01T16:54:25;1.27;;;0.45;;